Time;durP1;ratioP1;P1;durP2;ratioP2;P2;SDS_P1;SDS_P2;PMS_P1;PMS_P2;Temp;Humidity;BMP_temperature;BMP_pressure;BME280_temperature;BME280_humidity;BME280_pressure;Samples;Min_cycle;Max_cycle;Signal;HPM_P1;HPM_P2
2021/10/08 00:00:13;;;;;;;16.42;11.80;;;14.70;92.70;;;;;;5031171;28;20029;-63
2021/10/08 00:02:39;;;;;;;15.05;11.25;;;14.70;92.70;;;;;;5032957;28;20460;-62
2021/10/08 00:05:05;;;;;;;14.23;10.65;;;14.70;92.60;;;;;;5032749;28;20025;-63
2021/10/08 00:07:31;;;;;;;15.18;11.50;;;14.60;92.60;;;;;;5033318;28;20447;-62
2021/10/08 00:09:56;;;;;;;14.23;11.07;;;14.70;92.60;;;;;;5032047;28;20374;-62
2021/10/08 00:12:22;;;;;;;13.25;10.27;;;14.70;92.70;;;;;;5032783;28;20552;-62
2021/10/08 00:14:47;;;;;;;13.98;10.30;;;14.60;92.60;;;;;;5032405;28;20091;-63
2021/10/08 00:17:13;;;;;;;13.18;10.27;;;14.60;92.60;;;;;;5022465;23;20039;-68
2021/10/08 00:19:38;;;;;;;12.73;10.32;;;14.70;92.60;;;;;;4990940;28;20045;-65
2021/10/08 00:22:04;;;;;;;12.55;10.07;;;14.60;92.60;;;;;;4992098;28;20156;-65
2021/10/08 00:24:30;;;;;;;12.13;9.85;;;14.60;92.60;;;;;;4992653;28;20022;-66
2021/10/08 00:26:55;;;;;;;12.27;9.68;;;14.60;92.60;;;;;;4992971;28;20101;-68
2021/10/08 00:29:21;;;;;;;12.52;9.35;;;14.60;92.60;;;;;;4992867;28;20542;-66
2021/10/08 00:31:47;;;;;;;11.00;8.77;;;14.60;92.60;;;;;;4995692;28;20025;-65
2021/10/08 00:34:12;;;;;;;11.23;9.57;;;14.60;92.60;;;;;;5011730;28;20057;-66
2021/10/08 00:36:38;;;;;;;11.80;9.35;;;14.60;92.60;;;;;;5000475;28;20022;-67
2021/10/08 00:39:04;;;;;;;10.40;8.85;;;14.60;92.60;;;;;;4992590;28;20038;-66
2021/10/08 00:41:29;;;;;;;11.77;9.40;;;14.60;92.60;;;;;;4992925;28;20029;-66
2021/10/08 00:43:55;;;;;;;10.77;8.52;;;14.60;92.60;;;;;;5024483;28;20023;-66
2021/10/08 00:46:21;;;;;;;11.52;8.52;;;14.60;92.50;;;;;;4992475;28;20469;-66
2021/10/08 00:48:51;;;;;;;10.88;8.18;;;14.60;92.50;;;;;;4992950;28;20027;-66
2021/10/08 00:51:18;;;;;;;10.38;8.20;;;14.60;92.40;;;;;;4992611;28;20030;-67
2021/10/08 00:53:44;;;;;;;10.13;7.90;;;14.60;92.40;;;;;;4992148;28;20025;-67
2021/10/08 00:56:09;;;;;;;9.65;7.75;;;14.60;92.50;;;;;;4992588;28;20030;-67
2021/10/08 00:58:35;;;;;;;10.50;7.95;;;14.60;92.40;;;;;;4991115;28;20053;-66
2021/10/08 01:01:02;;;;;;;9.65;7.53;;;14.60;92.40;;;;;;4992434;28;20034;-68
2021/10/08 01:03:27;;;;;;;10.95;7.97;;;14.60;92.40;;;;;;5023660;28;20033;-67
2021/10/08 01:05:53;;;;;;;10.20;7.80;;;14.60;92.30;;;;;;4992425;28;20030;-65
2021/10/08 01:08:18;;;;;;;9.73;7.78;;;14.60;92.30;;;;;;4991222;28;20110;-65
2021/10/08 01:10:45;;;;;;;10.88;7.93;;;14.60;92.30;;;;;;4992589;28;20120;-66
2021/10/08 01:13:13;;;;;;;8.70;7.18;;;14.60;92.30;;;;;;4990698;28;20116;-65
2021/10/08 01:15:39;;;;;;;10.20;7.25;;;14.60;92.60;;;;;;4982042;28;20022;-65
2021/10/08 01:18:05;;;;;;;9.63;7.63;;;14.60;92.30;;;;;;4992140;28;20026;-65
2021/10/08 01:20:32;;;;;;;10.05;7.50;;;14.60;92.30;;;;;;4991519;28;20084;-65
2021/10/08 01:22:58;;;;;;;9.10;7.82;;;14.60;92.30;;;;;;4991593;28;20410;-65
2021/10/08 01:25:26;;;;;;;9.35;7.30;;;14.60;92.30;;;;;;4991883;28;20037;-65
2021/10/08 01:27:51;;;;;;;9.57;7.43;;;14.50;92.20;;;;;;5024156;28;20023;-65
2021/10/08 01:30:17;;;;;;;9.35;7.32;;;14.60;92.30;;;;;;4991527;28;20037;-65
2021/10/08 01:32:43;;;;;;;10.23;7.25;;;14.60;92.20;;;;;;5011468;28;20104;-65
2021/10/08 01:35:09;;;;;;;11.68;7.28;;;14.50;92.20;;;;;;5005808;28;20030;-68
2021/10/08 01:37:35;;;;;;;11.90;7.00;;;14.60;92.20;;;;;;4992348;28;20110;-64
2021/10/08 01:40:02;;;;;;;10.82;7.28;;;14.60;92.20;;;;;;4991958;28;20537;-65
2021/10/08 01:42:29;;;;;;;9.60;7.38;;;14.50;92.20;;;;;;4992383;28;20053;-65
2021/10/08 01:44:55;;;;;;;11.98;7.20;;;14.50;92.20;;;;;;4991705;28;20038;-65
2021/10/08 01:47:20;;;;;;;10.65;6.75;;;14.60;92.20;;;;;;4991884;28;20061;-65
2021/10/08 01:49:46;;;;;;;10.82;7.38;;;14.60;92.20;;;;;;4991620;28;20486;-65
2021/10/08 01:52:12;;;;;;;10.30;7.22;;;14.50;92.20;;;;;;5022396;28;20042;-67
2021/10/08 01:54:37;;;;;;;9.30;7.00;;;14.60;92.20;;;;;;4992040;28;20413;-65
2021/10/08 01:57:03;;;;;;;9.40;7.32;;;14.50;92.20;;;;;;4991829;28;20034;-66
2021/10/08 01:59:28;;;;;;;9.25;7.15;;;14.50;92.20;;;;;;4991456;28;20030;-65
2021/10/08 02:01:54;;;;;;;9.98;7.47;;;14.50;92.10;;;;;;4991462;28;20014;-68
2021/10/08 02:04:19;;;;;;;10.70;7.22;;;14.50;92.20;;;;;;4991621;28;20054;-65
2021/10/08 02:06:45;;;;;;;10.68;7.25;;;14.50;92.00;;;;;;4993193;28;20027;-66
2021/10/08 02:09:11;;;;;;;10.40;6.93;;;14.50;92.10;;;;;;4995715;28;20030;-66
2021/10/08 02:11:37;;;;;;;11.82;7.05;;;14.50;92.00;;;;;;4995329;28;20089;-65
2021/10/08 02:14:03;;;;;;;10.13;6.72;;;14.50;92.00;;;;;;4995695;28;20106;-68
2021/10/08 02:16:28;;;;;;;9.95;7.75;;;14.50;92.00;;;;;;4995135;28;20058;-66
2021/10/08 02:18:56;;;;;;;9.38;6.70;;;14.50;92.00;;;;;;4995306;28;20037;-65
2021/10/08 02:21:22;;;;;;;8.55;6.45;;;14.50;91.90;;;;;;4995785;28;20026;-65
2021/10/08 02:23:48;;;;;;;9.48;7.18;;;14.50;91.90;;;;;;4995349;28;20029;-65
2021/10/08 02:26:15;;;;;;;9.38;7.18;;;14.50;91.90;;;;;;4995266;28;20077;-65
2021/10/08 02:28:41;;;;;;;11.18;7.07;;;14.50;92.00;;;;;;4994867;28;20066;-66
2021/10/08 02:31:07;;;;;;;9.23;7.07;;;14.50;91.90;;;;;;4991038;28;20126;-65
2021/10/08 02:33:34;;;;;;;9.30;6.68;;;14.50;91.90;;;;;;4993983;28;20510;-66
2021/10/08 02:36:01;;;;;;;9.60;6.88;;;14.50;91.80;;;;;;4995123;28;20045;-65
2021/10/08 02:38:27;;;;;;;9.57;6.80;;;14.50;91.90;;;;;;5026318;28;20041;-65
2021/10/08 02:40:53;;;;;;;9.75;6.35;;;14.50;91.80;;;;;;4995140;28;20029;-65
2021/10/08 02:43:19;;;;;;;8.45;6.50;;;14.50;91.80;;;;;;4993786;28;20461;-65
2021/10/08 02:45:44;;;;;;;8.13;5.97;;;14.50;91.80;;;;;;4995018;28;20026;-66
2021/10/08 02:48:10;;;;;;;8.98;6.03;;;14.50;91.80;;;;;;4995163;28;20071;-65
2021/10/08 02:50:36;;;;;;;8.82;6.45;;;14.40;91.80;;;;;;4988385;28;20397;-65
2021/10/08 02:53:01;;;;;;;7.80;5.85;;;14.40;91.80;;;;;;4983852;28;20038;-65
2021/10/08 02:55:27;;;;;;;9.00;6.35;;;14.40;91.80;;;;;;4994623;28;20031;-65
2021/10/08 02:57:52;;;;;;;8.65;5.90;;;14.40;91.80;;;;;;4995280;28;20037;-65
2021/10/08 03:00:18;;;;;;;8.52;6.15;;;14.40;91.80;;;;;;4994292;28;20030;-65
2021/10/08 03:02:44;;;;;;;8.10;5.53;;;14.40;91.70;;;;;;4994847;28;20050;-66
2021/10/08 03:05:10;;;;;;;8.55;6.22;;;14.40;91.70;;;;;;4994493;28;20026;-66
2021/10/08 03:07:35;;;;;;;8.38;6.20;;;14.40;91.70;;;;;;4994716;28;20549;-66
2021/10/08 03:10:02;;;;;;;8.52;5.88;;;14.40;91.70;;;;;;4993776;28;20125;-65
2021/10/08 03:12:27;;;;;;;9.00;5.75;;;14.40;91.70;;;;;;4994761;28;20416;-66
2021/10/08 03:14:53;;;;;;;10.85;6.32;;;14.40;91.70;;;;;;4994585;28;20036;-65
2021/10/08 03:17:19;;;;;;;8.90;5.55;;;14.40;91.80;;;;;;4993976;28;20038;-65
2021/10/08 03:19:44;;;;;;;8.00;5.80;;;14.40;91.80;;;;;;4993093;28;20038;-66
2021/10/08 03:22:10;;;;;;;7.38;5.50;;;14.40;91.70;;;;;;4994580;28;20057;-65
2021/10/08 03:24:36;;;;;;;8.65;6.28;;;14.40;91.60;;;;;;4994178;28;20153;-65
2021/10/08 03:27:02;;;;;;;7.50;5.57;;;14.40;91.70;;;;;;4994666;28;20101;-65
2021/10/08 03:29:28;;;;;;;7.97;5.93;;;14.40;91.60;;;;;;4994027;28;20030;-65
2021/10/08 03:31:53;;;;;;;9.18;6.18;;;14.40;91.50;;;;;;4993967;28;20371;-66
2021/10/08 03:34:19;;;;;;;8.95;6.20;;;14.40;91.60;;;;;;4993950;28;20117;-65
2021/10/08 03:36:56;;;;;;;9.10;6.03;;;14.40;91.60;;;;;;4994037;28;20398;-65
2021/10/08 03:39:28;;;;;;;8.07;5.72;;;14.40;91.70;;;;;;4993654;28;20030;-65
2021/10/08 03:41:54;;;;;;;7.85;5.70;;;14.40;91.70;;;;;;4994083;28;20037;-65
2021/10/08 03:44:21;;;;;;;8.32;5.68;;;14.40;91.60;;;;;;4993950;28;20097;-65
2021/10/08 03:46:58;;;;;;;7.95;5.25;;;14.40;91.60;;;;;;4993520;28;20367;-65
2021/10/08 03:49:24;;;;;;;7.40;5.18;;;14.40;91.60;;;;;;4993274;28;20114;-65
2021/10/08 03:51:51;;;;;;;7.57;5.45;;;14.40;91.70;;;;;;4993559;28;20109;-65
2021/10/08 03:54:18;;;;;;;7.40;5.05;;;14.40;91.70;;;;;;4993616;28;20034;-64
2021/10/08 03:56:45;;;;;;;7.80;5.68;;;14.40;91.70;;;;;;4993584;28;20467;-65
2021/10/08 03:59:11;;;;;;;10.15;6.05;;;14.40;91.60;;;;;;4989591;28;20117;-66
2021/10/08 04:01:37;;;;;;;8.48;5.60;;;14.40;91.60;;;;;;4991938;28;20034;-65
2021/10/08 04:04:04;;;;;;;8.27;5.57;;;14.30;91.60;;;;;;4993606;28;20475;-65
2021/10/08 04:06:31;;;;;;;7.68;5.13;;;14.30;91.50;;;;;;5024262;28;20025;-65
2021/10/08 04:08:57;;;;;;;7.63;5.40;;;14.30;91.60;;;;;;4992098;28;20072;-65
2021/10/08 04:11:22;;;;;;;8.35;5.72;;;14.30;91.50;;;;;;4993281;28;20030;-67
2021/10/08 04:13:48;;;;;;;8.07;5.40;;;14.30;91.40;;;;;;4993522;28;20512;-65
2021/10/08 04:16:14;;;;;;;7.20;5.57;;;14.30;91.50;;;;;;4989770;28;20034;-65
2021/10/08 04:18:39;;;;;;;8.45;6.22;;;14.30;91.50;;;;;;5024804;28;20030;-65
2021/10/08 04:21:05;;;;;;;7.90;5.65;;;14.30;91.40;;;;;;4993361;28;20454;-64
2021/10/08 04:23:30;;;;;;;10.15;6.18;;;14.30;91.50;;;;;;4993501;28;20031;-66
2021/10/08 04:25:56;;;;;;;8.13;5.65;;;14.30;91.50;;;;;;4992577;28;20498;-65
2021/10/08 04:28:22;;;;;;;8.13;5.72;;;14.30;91.50;;;;;;5023688;28;20089;-66
2021/10/08 04:30:47;;;;;;;7.63;5.55;;;14.30;91.40;;;;;;4992022;28;20034;-66
2021/10/08 04:33:15;;;;;;;7.18;5.38;;;14.30;91.40;;;;;;4984546;28;20030;-65
2021/10/08 04:35:41;;;;;;;8.10;5.50;;;14.30;91.30;;;;;;4993377;28;20394;-65
2021/10/08 04:38:07;;;;;;;6.80;5.10;;;14.30;91.30;;;;;;4992624;28;20045;-65
2021/10/08 04:40:32;;;;;;;7.95;5.50;;;14.30;91.30;;;;;;4992594;28;20036;-66
2021/10/08 04:42:58;;;;;;;7.07;5.25;;;14.30;91.20;;;;;;4992517;28;20453;-64
2021/10/08 04:45:23;;;;;;;8.68;5.40;;;14.30;91.20;;;;;;5009224;28;20496;-64
2021/10/08 04:47:49;;;;;;;7.60;5.30;;;14.30;91.20;;;;;;5009012;28;20022;-65
2021/10/08 04:50:14;;;;;;;7.70;5.20;;;14.30;91.20;;;;;;4990936;28;20023;-67
2021/10/08 04:52:40;;;;;;;8.30;6.03;;;13.60;79.30;;;;;;4989530;28;20052;-65
2021/10/08 04:55:06;;;;;;;7.43;5.22;;;12.90;93.20;;;;;;4993005;28;20022;-66
2021/10/08 04:57:31;;;;;;;14.32;5.90;;;13.20;92.10;;;;;;4991758;28;20026;-64
2021/10/08 04:59:57;;;;;;;11.57;5.50;;;13.50;91.50;;;;;;4992649;28;20060;-66
2021/10/08 05:02:22;;;;;;;8.63;5.30;;;13.70;91.00;;;;;;4991026;28;20026;-65
2021/10/08 05:04:48;;;;;;;8.90;5.38;;;13.90;91.00;;;;;;4992778;28;20026;-64
2021/10/08 05:07:13;;;;;;;6.72;4.88;;;13.90;91.00;;;;;;4993016;28;20386;-66
2021/10/08 05:09:39;;;;;;;10.60;5.43;;;14.00;90.90;;;;;;4991226;28;20026;-65
2021/10/08 05:12:05;;;;;;;10.10;4.95;;;14.00;90.80;;;;;;4992537;28;20042;-64
2021/10/08 05:14:30;;;;;;;7.70;5.13;;;14.10;90.80;;;;;;4989784;28;20476;-65
2021/10/08 05:16:56;;;;;;;8.00;4.70;;;14.10;90.80;;;;;;5021672;28;20030;-66
2021/10/08 05:19:23;;;;;;;8.50;5.13;;;14.10;90.80;;;;;;5021725;28;20334;-65
2021/10/08 05:21:50;;;;;;;7.20;5.05;;;14.10;90.80;;;;;;5023312;28;20042;-65
2021/10/08 05:24:16;;;;;;;7.70;4.82;;;14.10;90.80;;;;;;4992010;28;20457;-65
2021/10/08 05:26:41;;;;;;;7.03;4.82;;;14.10;90.80;;;;;;4990742;28;20056;-66
2021/10/08 05:29:07;;;;;;;7.55;4.82;;;14.10;90.80;;;;;;4992648;28;20034;-65
2021/10/08 05:31:33;;;;;;;9.07;4.82;;;14.10;90.80;;;;;;4992543;28;20037;-65
2021/10/08 05:33:59;;;;;;;8.80;4.93;;;14.10;90.80;;;;;;4992597;28;20046;-67
2021/10/08 05:36:24;;;;;;;8.38;4.88;;;14.10;90.80;;;;;;4992367;28;20062;-67
2021/10/08 05:38:50;;;;;;;8.30;5.07;;;14.10;90.80;;;;;;4992459;28;20064;-64
2021/10/08 05:41:15;;;;;;;6.63;4.88;;;14.10;90.80;;;;;;4992304;28;20489;-65
2021/10/08 05:43:41;;;;;;;6.40;4.50;;;14.10;90.70;;;;;;4992672;28;20084;-66
2021/10/08 05:46:06;;;;;;;6.60;4.65;;;14.10;90.70;;;;;;4992381;28;20034;-65
2021/10/08 05:48:32;;;;;;;8.57;4.90;;;14.10;90.70;;;;;;4991114;28;20025;-65
2021/10/08 05:50:57;;;;;;;6.30;4.55;;;14.10;90.60;;;;;;4992426;28;20026;-65
2021/10/08 05:53:23;;;;;;;6.82;4.72;;;14.10;90.70;;;;;;4991362;28;20031;-64
2021/10/08 05:55:48;;;;;;;6.68;4.82;;;14.10;90.60;;;;;;4992534;28;20101;-66
2021/10/08 05:58:14;;;;;;;6.80;4.70;;;14.10;90.60;;;;;;4991135;28;20027;-65
2021/10/08 06:00:39;;;;;;;6.20;4.35;;;14.10;90.60;;;;;;5000165;28;20512;-68
2021/10/08 06:03:06;;;;;;;5.90;4.40;;;14.10;90.50;;;;;;5022950;28;20053;-66
2021/10/08 06:05:36;;;;;;;6.75;4.40;;;14.10;90.50;;;;;;4990312;28;20030;-65
2021/10/08 06:08:02;;;;;;;6.90;4.30;;;14.10;90.60;;;;;;4993506;28;20024;-65
2021/10/08 06:10:28;;;;;;;6.68;4.40;;;14.10;90.70;;;;;;4988185;28;20117;-66
2021/10/08 06:12:54;;;;;;;5.78;4.22;;;14.10;90.60;;;;;;5021864;28;20126;-65
2021/10/08 06:15:19;;;;;;;7.03;4.30;;;14.00;90.70;;;;;;4991726;28;20034;-64
2021/10/08 06:17:45;;;;;;;8.15;4.57;;;14.10;90.60;;;;;;4991584;28;20112;-65
2021/10/08 06:20:11;;;;;;;36.33;6.60;;;14.10;90.60;;;;;;4991450;28;20522;-65
2021/10/08 06:22:36;;;;;;;23.35;5.55;;;14.00;89.70;;;;;;4992049;28;20026;-65
2021/10/08 06:25:04;;;;;;;14.25;4.68;;;14.00;89.90;;;;;;4992143;28;20015;-65
2021/10/08 06:27:30;;;;;;;7.53;4.60;;;14.00;90.30;;;;;;4992184;28;20085;-65
2021/10/08 06:29:56;;;;;;;11.35;4.97;;;14.00;90.40;;;;;;4991930;28;20022;-65
2021/10/08 06:32:21;;;;;;;10.43;4.85;;;14.00;90.50;;;;;;4991879;28;20031;-65
2021/10/08 06:34:47;;;;;;;8.93;4.70;;;14.00;90.50;;;;;;4992004;28;20026;-64
2021/10/08 06:37:13;;;;;;;9.18;4.47;;;14.00;90.50;;;;;;4991920;28;20057;-66
2021/10/08 06:39:38;;;;;;;9.30;5.15;;;14.00;90.40;;;;;;4991668;28;20416;-65
2021/10/08 06:42:04;;;;;;;8.93;4.75;;;14.00;90.50;;;;;;4992070;28;20026;-65
2021/10/08 06:44:30;;;;;;;7.40;4.78;;;14.00;90.50;;;;;;4992250;28;20025;-64
2021/10/08 06:46:55;;;;;;;10.30;5.00;;;14.00;90.50;;;;;;4992133;28;20759;-65
2021/10/08 06:49:21;;;;;;;9.98;5.47;;;14.00;90.50;;;;;;4991804;28;20022;-65
2021/10/08 06:51:47;;;;;;;7.82;5.40;;;14.00;90.50;;;;;;4992054;28;20023;-65
2021/10/08 06:54:12;;;;;;;7.78;4.65;;;14.10;90.50;;;;;;5026917;28;20069;-67
2021/10/08 06:56:38;;;;;;;9.77;4.60;;;14.00;90.50;;;;;;4995612;28;20034;-66
2021/10/08 06:59:03;;;;;;;6.60;4.50;;;14.10;90.60;;;;;;4995103;28;20077;-64
2021/10/08 07:01:29;;;;;;;9.63;4.97;;;14.10;90.60;;;;;;4995360;28;20023;-66
2021/10/08 07:03:54;;;;;;;10.02;5.00;;;14.10;90.70;;;;;;4995379;28;20444;-65
2021/10/08 07:06:20;;;;;;;6.50;4.60;;;14.10;90.70;;;;;;4995372;28;20485;-66
2021/10/08 07:08:45;;;;;;;7.20;5.13;;;14.10;90.60;;;;;;4994875;28;20041;-65
2021/10/08 07:11:11;;;;;;;6.68;4.53;;;14.10;90.70;;;;;;4995355;28;20027;-67
2021/10/08 07:13:36;;;;;;;6.57;4.57;;;14.10;90.70;;;;;;4995185;28;20573;-65
2021/10/08 07:16:02;;;;;;;8.05;4.70;;;14.10;90.90;;;;;;4994867;28;20093;-65
2021/10/08 07:18:35;;;;;;;6.70;4.60;;;14.10;90.70;;;;;;5026373;28;20022;-65
2021/10/08 07:21:02;;;;;;;7.35;4.38;;;14.10;90.70;;;;;;4995064;28;20756;-65
2021/10/08 07:23:28;;;;;;;7.07;4.57;;;14.10;90.80;;;;;;4995068;28;20030;-67
2021/10/08 07:25:54;;;;;;;6.07;4.40;;;14.10;90.80;;;;;;4995029;28;20018;-66
2021/10/08 07:28:20;;;;;;;6.47;4.80;;;14.10;90.70;;;;;;4994658;28;20401;-65
2021/10/08 07:30:46;;;;;;;6.45;4.45;;;14.10;90.80;;;;;;4994922;28;20482;-65
2021/10/08 07:33:12;;;;;;;6.80;4.38;;;14.10;90.80;;;;;;4987651;28;20074;-65
2021/10/08 07:35:37;;;;;;;7.55;4.50;;;14.10;90.80;;;;;;4993890;28;20564;-65
2021/10/08 07:38:03;;;;;;;6.32;4.40;;;14.10;90.80;;;;;;4994162;28;20462;-66
2021/10/08 07:40:29;;;;;;;7.60;4.72;;;14.20;90.80;;;;;;4993579;28;20062;-67
2021/10/08 07:42:54;;;;;;;6.43;4.25;;;14.10;90.80;;;;;;4994238;28;20030;-65
2021/10/08 07:45:20;;;;;;;6.50;4.50;;;14.10;90.80;;;;;;4994127;28;20034;-64
2021/10/08 07:47:46;;;;;;;5.90;4.10;;;14.10;90.90;;;;;;4993677;28;20022;-66
2021/10/08 07:50:12;;;;;;;6.72;4.57;;;14.20;90.90;;;;;;4993054;28;20029;-66
2021/10/08 07:52:38;;;;;;;5.97;4.20;;;14.20;90.90;;;;;;4994579;28;20037;-65
2021/10/08 07:55:06;;;;;;;5.68;4.25;;;14.10;90.90;;;;;;4994276;28;20034;-65
2021/10/08 07:57:31;;;;;;;6.43;4.60;;;14.10;91.00;;;;;;4993160;28;20037;-66
2021/10/08 07:59:57;;;;;;;6.25;4.28;;;14.20;91.00;;;;;;4993887;28;20026;-65
2021/10/08 08:02:23;;;;;;;6.65;4.68;;;14.10;91.00;;;;;;4994579;28;20034;-64
2021/10/08 08:04:49;;;;;;;6.10;4.38;;;14.20;91.10;;;;;;4994105;28;20029;-65
2021/10/08 08:07:15;;;;;;;6.68;4.70;;;14.10;91.10;;;;;;4994282;28;20030;-65
2021/10/08 08:09:40;;;;;;;6.63;4.50;;;14.10;91.10;;;;;;4993626;28;20030;-65
2021/10/08 08:12:06;;;;;;;6.07;4.35;;;14.20;91.10;;;;;;4994139;28;20026;-66
2021/10/08 08:14:31;;;;;;;9.70;4.53;;;14.20;91.20;;;;;;5078540;23;20049;-61
2021/10/08 08:16:57;;;;;;;9.35;4.53;;;14.20;91.20;;;;;;5013380;28;20049;-61
2021/10/08 08:19:23;;;;;;;7.93;5.00;;;14.20;91.20;;;;;;5012896;28;20405;-61
2021/10/08 08:21:48;;;;;;;7.72;4.60;;;14.20;91.20;;;;;;5028496;28;20026;-61
2021/10/08 08:24:14;;;;;;;7.03;4.57;;;14.20;91.30;;;;;;5013238;28;20444;-61
2021/10/08 08:26:39;;;;;;;7.25;4.97;;;14.20;91.30;;;;;;5013493;28;20105;-61
2021/10/08 08:29:05;;;;;;;7.97;4.80;;;14.20;91.30;;;;;;5012788;28;20030;-61
2021/10/08 08:31:32;;;;;;;8.00;5.15;;;14.20;91.30;;;;;;5011875;28;20033;-61
2021/10/08 08:33:58;;;;;;;8.38;4.82;;;14.20;91.30;;;;;;5013104;28;20037;-62
2021/10/08 08:36:24;;;;;;;7.07;4.68;;;14.20;91.40;;;;;;5013038;28;20037;-61
2021/10/08 08:38:49;;;;;;;7.95;5.07;;;14.20;91.50;;;;;;5012715;28;20054;-61
2021/10/08 08:41:15;;;;;;;7.40;4.55;;;14.30;91.50;;;;;;5012971;28;20533;-61
2021/10/08 08:43:41;;;;;;;8.00;4.80;;;14.20;91.60;;;;;;5012914;28;20278;-61
2021/10/08 08:46:06;;;;;;;6.65;4.45;;;14.30;91.60;;;;;;5012836;28;20075;-61
2021/10/08 08:48:32;;;;;;;6.82;5.05;;;14.30;91.60;;;;;;5012492;28;20029;-61
2021/10/08 08:50:57;;;;;;;7.38;5.10;;;14.20;91.70;;;;;;5012787;28;20022;-61
2021/10/08 08:53:23;;;;;;;7.93;5.03;;;14.20;91.70;;;;;;5011374;28;20113;-61
2021/10/08 08:55:51;;;;;;;7.40;5.28;;;14.30;91.70;;;;;;5012638;28;20033;-61
2021/10/08 08:58:18;;;;;;;7.80;5.50;;;14.30;91.80;;;;;;5012365;28;20030;-60
2021/10/08 09:00:46;;;;;;;7.88;4.90;;;14.30;92.00;;;;;;5012472;28;20500;-61
2021/10/08 09:03:14;;;;;;;7.65;4.88;;;14.30;91.80;;;;;;5012516;28;20076;-61
2021/10/08 09:05:46;;;;;;;7.43;4.95;;;14.30;91.90;;;;;;5012592;28;20309;-60
2021/10/08 09:08:13;;;;;;;7.53;5.57;;;14.30;91.90;;;;;;5012472;28;20097;-60
2021/10/08 09:10:42;;;;;;;7.85;5.40;;;14.30;91.90;;;;;;5012323;28;20080;-61
2021/10/08 09:13:07;;;;;;;7.90;5.38;;;14.30;92.00;;;;;;5012346;28;20052;-61
2021/10/08 09:15:55;;;;;;;7.80;5.25;;;14.30;92.00;;;;;;5010409;28;20056;-61
2021/10/08 09:18:23;;;;;;;7.65;5.40;;;14.30;92.10;;;;;;5012215;28;20400;-61
2021/10/08 09:21:08;;;;;;;7.10;5.50;;;14.30;92.10;;;;;;5012122;28;20029;-61
2021/10/08 09:23:41;;;;;;;8.48;5.43;;;14.40;92.10;;;;;;5010949;28;20485;-61
2021/10/08 09:26:21;;;;;;;7.30;5.00;;;14.40;92.20;;;;;;5012187;28;20022;-61
2021/10/08 09:28:55;;;;;;;6.80;5.05;;;14.40;92.20;;;;;;5011927;28;20083;-62
2021/10/08 09:31:36;;;;;;;7.18;5.32;;;14.30;92.10;;;;;;5012173;28;20479;-61
2021/10/08 09:34:16;;;;;;;8.82;6.05;;;14.30;92.20;;;;;;5011948;28;20061;-62
2021/10/08 09:36:46;;;;;;;7.33;5.23;;;14.30;92.30;;;;;;5012062;28;20073;-62
2021/10/08 09:39:20;;;;;;;8.02;5.65;;;14.40;92.30;;;;;;5011693;28;20119;-62
2021/10/08 09:41:54;;;;;;;8.32;5.70;;;14.40;92.30;;;;;;5011934;28;20040;-61
2021/10/08 09:44:21;;;;;;;8.07;5.43;;;14.40;92.30;;;;;;5011983;28;20018;-61
2021/10/08 09:46:47;;;;;;;8.25;5.70;;;14.40;92.20;;;;;;5011817;28;20030;-62
2021/10/08 09:49:22;;;;;;;7.82;5.63;;;14.40;92.20;;;;;;5011549;28;20032;-60
2021/10/08 09:51:48;;;;;;;7.93;6.05;;;14.40;92.30;;;;;;5011913;28;20032;-61
2021/10/08 09:54:14;;;;;;;8.30;5.68;;;14.40;92.20;;;;;;5010549;28;20396;-61
2021/10/08 09:56:41;;;;;;;8.15;5.78;;;14.40;92.20;;;;;;5011851;28;20026;-61
2021/10/08 09:59:08;;;;;;;8.52;6.22;;;14.40;92.20;;;;;;5011370;28;20113;-61
2021/10/08 10:01:36;;;;;;;7.85;5.85;;;14.50;92.40;;;;;;5011690;28;20017;-61
2021/10/08 10:04:04;;;;;;;8.07;5.88;;;14.50;92.40;;;;;;5011763;28;20053;-61
2021/10/08 10:06:31;;;;;;;8.80;6.32;;;14.50;92.30;;;;;;5011745;28;20101;-61
2021/10/08 10:08:56;;;;;;;8.75;6.22;;;14.50;92.10;;;;;;5011436;28;20459;-61
2021/10/08 10:11:25;;;;;;;8.07;5.82;;;14.50;92.70;;;;;;5011651;28;20046;-61
2021/10/08 10:13:57;;;;;;;9.45;6.18;;;14.50;92.20;;;;;;5011452;28;20030;-61
2021/10/08 10:16:24;;;;;;;9.00;6.40;;;14.50;93.00;;;;;;5011690;28;20022;-61
2021/10/08 10:18:57;;;;;;;8.40;6.07;;;14.50;93.60;;;;;;5011380;28;20521;-62
2021/10/08 10:21:30;;;;;;;7.95;6.10;;;14.50;92.30;;;;;;5011622;28;20022;-61
2021/10/08 10:24:01;;;;;;;8.73;5.97;;;14.50;93.00;;;;;;5011645;28;20029;-62
2021/10/08 10:26:30;;;;;;;8.90;6.70;;;14.50;93.40;;;;;;5011502;28;20022;-61
2021/10/08 10:28:58;;;;;;;8.40;6.30;;;14.60;93.20;;;;;;5014984;28;20030;-61
2021/10/08 10:31:25;;;;;;;9.60;6.65;;;14.60;93.40;;;;;;5015619;28;20033;-61
2021/10/08 10:33:56;;;;;;;8.73;6.05;;;14.60;93.50;;;;;;5015439;28;20108;-61
2021/10/08 10:36:26;;;;;;;8.93;6.37;;;14.50;92.80;;;;;;5015544;28;20512;-62
2021/10/08 10:39:12;;;;;;;8.18;6.10;;;14.60;92.90;;;;;;5014948;28;20080;-61
2021/10/08 10:41:41;;;;;;;8.30;6.10;;;14.60;92.50;;;;;;5015197;28;20022;-62
2021/10/08 10:44:16;;;;;;;8.32;6.22;;;14.50;93.10;;;;;;5014108;28;20026;-61
2021/10/08 10:49:56;;;;;;;8.70;6.40;;;14.50;92.40;;;;;;5014823;28;20401;-62
2021/10/08 10:52:01;;;;;;;9.55;6.45;;;14.60;92.40;;;;;;5006784;28;20197;-62
2021/10/08 10:54:42;;;;;;;9.63;6.65;;;14.60;92.70;;;;;;5013646;28;20113;-62
2021/10/08 10:57:12;;;;;;;9.50;6.55;;;14.60;92.70;;;;;;5014892;28;20022;-61
2021/10/08 10:59:42;;;;;;;11.57;6.80;;;14.60;93.60;;;;;;5010916;28;20030;-61
2021/10/08 11:02:16;;;;;;;10.07;7.05;;;14.60;92.80;;;;;;4995277;28;20022;-62
2021/10/08 11:04:45;;;;;;;9.60;6.97;;;14.60;92.60;;;;;;4994078;28;20034;-62
2021/10/08 11:07:16;;;;;;;9.07;6.82;;;14.60;92.70;;;;;;5002934;28;20516;-62
2021/10/08 11:09:43;;;;;;;9.98;6.97;;;14.60;92.70;;;;;;5005302;28;20037;-62
2021/10/08 11:12:46;;;;;;;9.20;7.15;;;14.60;92.70;;;;;;5006850;28;20034;-63
2021/10/08 11:15:15;;;;;;;10.98;7.63;;;14.60;92.80;;;;;;5014508;28;20034;-61
2021/10/08 11:18:00;;;;;;;9.48;7.00;;;14.60;93.40;;;;;;5012055;28;20026;-62
2021/10/08 11:20:28;;;;;;;9.70;7.10;;;14.70;93.20;;;;;;5000637;28;20027;-62
2021/10/08 11:23:01;;;;;;;10.02;7.60;;;14.60;92.80;;;;;;4994736;28;20046;-62
2021/10/08 11:25:29;;;;;;;10.07;6.88;;;14.70;93.10;;;;;;4995101;28;20397;-61
2021/10/08 11:27:55;;;;;;;9.52;6.53;;;14.70;93.10;;;;;;4993466;28;20026;-62
2021/10/08 11:30:24;;;;;;;10.20;6.85;;;14.70;93.00;;;;;;4994524;28;20163;-62
2021/10/08 11:32:52;;;;;;;10.68;6.90;;;14.70;92.80;;;;;;4994513;28;20022;-61
2021/10/08 11:35:27;;;;;;;12.43;7.47;;;14.70;93.30;;;;;;4994609;28;20501;-62
2021/10/08 11:37:53;;;;;;;10.80;7.05;;;14.80;93.00;;;;;;4994231;28;20034;-62
2021/10/08 11:40:36;;;;;;;11.55;7.43;;;14.80;92.90;;;;;;4994123;28;20038;-61
2021/10/08 11:43:08;;;;;;;10.82;6.93;;;14.80;92.70;;;;;;4993305;28;20441;-62
2021/10/08 11:45:39;;;;;;;10.35;6.43;;;14.80;92.60;;;;;;4994254;28;20015;-63
2021/10/08 11:50:56;;;;;;;11.52;6.63;;;14.90;92.50;;;;;;4999765;28;20490;-62
2021/10/08 11:53:22;;;;;;;8.73;6.28;;;14.90;92.50;;;;;;4994243;28;20236;-62
2021/10/08 11:55:47;;;;;;;11.35;7.15;;;14.90;92.40;;;;;;4994127;28;20038;-62
2021/10/08 11:58:15;;;;;;;1284.43;102.88;;;14.90;92.30;;;;;;4994021;28;20474;-66
2021/10/08 12:00:44;;;;;;;793.72;57.70;;;15.00;92.20;;;;;;5001577;28;20034;-66
2021/10/08 12:03:13;;;;;;;373.15;28.38;;;15.00;92.20;;;;;;5016682;28;20457;-67
2021/10/08 12:05:47;;;;;;;757.97;52.05;;;14.90;92.30;;;;;;5021391;28;20041;-67
2021/10/08 12:08:16;;;;;;;1223.20;87.55;;;14.90;92.60;;;;;;5019358;28;20069;-64
2021/10/08 12:10:59;;;;;;;1999.90;427.08;;;14.90;92.50;;;;;;5017785;28;20513;-66
2021/10/08 12:13:58;;;;;;;1999.90;253.13;;;15.00;92.50;;;;;;5018269;28;20058;-66
2021/10/08 12:16:41;;;;;;;1999.90;157.25;;;14.90;92.60;;;;;;5019508;28;20025;-66
2021/10/08 12:19:08;;;;;;;1483.22;115.68;;;14.90;92.70;;;;;;5016852;28;20124;-66
2021/10/08 12:21:36;;;;;;;977.03;75.28;;;14.90;92.90;;;;;;5017896;28;20045;-65
2021/10/08 12:24:09;;;;;;;788.30;61.40;;;14.90;92.80;;;;;;5016576;28;20022;-66
2021/10/08 12:26:38;;;;;;;790.42;60.80;;;14.90;92.60;;;;;;5016214;28;20025;-65
2021/10/08 12:29:10;;;;;;;897.88;68.28;;;15.00;92.90;;;;;;5001831;28;20030;-65
2021/10/08 12:31:57;;;;;;;809.03;58.63;;;15.10;92.80;;;;;;4996531;28;20034;-65
2021/10/08 12:34:33;;;;;;;766.88;58.15;;;15.30;92.40;;;;;;5003875;28;20056;-66
2021/10/08 12:37:02;;;;;;;427.50;33.45;;;15.40;91.60;;;;;;5009912;28;20037;-65
2021/10/08 12:39:27;;;;;;;156.57;15.85;;;15.60;90.80;;;;;;5014161;28;20041;-65
2021/10/08 12:41:58;;;;;;;480.45;33.85;;;15.70;90.90;;;;;;5021635;28;20026;-66
2021/10/08 12:44:30;;;;;;;896.65;63.78;;;15.80;90.80;;;;;;5015334;28;20021;-66
2021/10/08 12:47:09;;;;;;;276.92;21.33;;;15.80;90.50;;;;;;5029419;28;20017;-65